Time;durP1;ratioP1;P1;durP2;ratioP2;P2;SDS_P1;SDS_P2;PMS_P1;PMS_P2;Temp;Humidity;BMP_temperature;BMP_pressure;BME280_temperature;BME280_humidity;BME280_pressure;Samples;Min_cycle;Max_cycle;Signal;HPM_P1;HPM_P2
2023/01/29 00:01:38;;;;;;;;;;;;;;;-1.90;97.44;102971.81;5052110;28;19912;-44
2023/01/29 00:04:04;;;;;;;;;;;;;;;-1.86;97.23;102978.59;5052543;28;20326;-47
2023/01/29 00:06:29;;;;;;;;;;;;;;;-1.82;97.25;102966.38;5052536;28;20458;-48
2023/01/29 00:08:54;;;;;;;;;;;;;;;-1.79;96.96;102960.59;5051770;28;19924;-47
2023/01/29 00:11:20;;;;;;;;;;;;;;;-1.79;97.03;102951.63;5051392;28;19917;-47
2023/01/29 00:13:46;;;;;;;;;;;;;;;-1.77;96.35;102960.44;5051638;28;20456;-45
2023/01/29 00:16:12;;;;;;;;;;;;;;;-1.81;97.16;102957.22;5051222;28;19920;-47
2023/01/29 00:18:40;;;;;;;;;;;;;;;-1.85;97.91;102955.88;5052216;28;19913;-50
2023/01/29 00:21:16;;;;;;;;;;;;;;;-1.85;97.09;102949.59;5044380;28;19940;-46
2023/01/29 00:23:42;;;;;;;;;;;;;;;-1.86;97.53;102945.19;5052351;28;19935;-50
2023/01/29 00:26:08;;;;;;;;;;;;;;;-1.88;97.30;102943.50;5050766;28;20371;-49
2023/01/29 00:28:33;;;;;;;;;;;;;;;-1.88;97.44;102931.78;5052266;28;19956;-50
2023/01/29 00:31:05;;;;;;;;;;;;;;;-1.92;98.13;102935.88;5052126;28;19917;-49
2023/01/29 00:33:30;;;;;;;;;;;;;;;-1.95;98.73;102938.91;5052223;28;19923;-48
2023/01/29 00:35:55;;;;;;;;;;;;;;;-1.96;98.34;102937.22;5050849;28;19916;-47
2023/01/29 00:38:20;;;;;;;;;;;;;;;-1.95;98.25;102941.63;5052298;28;19916;-48
2023/01/29 00:46:13;;;;;;;;;;;;;;;-1.93;97.70;102918.72;5052441;28;19919;-46
2023/01/29 00:48:39;;;;;;;;;;;;;;;-1.95;98.89;102911.78;5050545;28;20006;-47
2023/01/29 00:51:04;;;;;;;;;;;;;;;-1.95;97.43;102915.38;5052062;28;20020;-52
2023/01/29 00:53:29;;;;;;;;;;;;;;;-2.03;99.30;102904.50;5051935;28;20387;-48
2023/01/29 00:55:54;;;;;;;;;;;;;;;-2.07;98.29;102905.88;5051570;28;19964;-50
2023/01/29 00:58:21;;;;;;;;;;;;;;;-2.13;99.26;102907.41;5051605;28;19917;-46
2023/01/29 01:00:46;;;;;;;;;;;;;;;-2.18;99.67;102903.50;5051685;28;19932;-49
2023/01/29 01:03:11;;;;;;;;;;;;;;;-2.21;98.78;102894.69;5051497;28;19912;-47
2023/01/29 01:05:37;;;;;;;;;;;;;;;-2.14;97.56;102894.00;5051802;28;19920;-48
2023/01/29 01:08:03;;;;;;;;;;;;;;;-2.20;97.12;102900.97;5051715;28;19912;-47
2023/01/29 01:10:30;;;;;;;;;;;;;;;-2.13;96.27;102911.97;5051618;28;20368;-46
2023/01/29 01:12:59;;;;;;;;;;;;;;;-2.11;96.49;102902.66;5051468;28;19916;-46
2023/01/29 01:15:27;;;;;;;;;;;;;;;-2.06;95.45;102902.13;5051620;28;19916;-46
2023/01/29 01:17:57;;;;;;;;;;;;;;;-2.05;96.49;102903.84;5051858;28;19923;-47
2023/01/29 01:20:22;;;;;;;;;;;;;;;-1.97;96.38;102900.25;5048877;28;20016;-47
2023/01/29 01:22:48;;;;;;;;;;;;;;;-1.91;96.39;102892.28;5047287;28;19998;-47
2023/01/29 01:25:14;;;;;;;;;;;;;;;-1.80;96.29;102901.94;5051480;28;19960;-45
2023/01/29 01:27:40;;;;;;;;;;;;;;;-1.84;96.37;102902.47;5051363;28;20332;-50
2023/01/29 01:30:09;;;;;;;;;;;;;;;-1.86;96.56;102904.50;5051541;28;19924;-50
2023/01/29 01:32:35;;;;;;;;;;;;;;;-1.78;96.79;102901.75;5051364;28;19916;-51
2023/01/29 01:35:00;;;;;;;;;;;;;;;-1.80;96.90;102904.66;5051439;28;19912;-50
2023/01/29 01:37:25;;;;;;;;;;;;;;;-1.77;96.63;102909.72;5051349;28;19917;-45
2023/01/29 01:39:50;;;;;;;;;;;;;;;-1.72;96.54;102914.63;5051159;28;20001;-45
2023/01/29 01:42:15;;;;;;;;;;;;;;;-1.63;96.74;102902.72;5049762;28;20253;-46
2023/01/29 01:44:54;;;;;;;;;;;;;;;-1.67;96.84;102903.25;5051025;28;19919;-46
2023/01/29 01:47:23;;;;;;;;;;;;;;;-1.68;96.86;102899.72;5051315;28;19929;-44
2023/01/29 01:49:49;;;;;;;;;;;;;;;-1.70;97.20;102895.47;5051067;28;19970;-50
2023/01/29 01:52:15;;;;;;;;;;;;;;;-1.62;96.51;102900.88;5050493;28;19916;-50
2023/01/29 01:54:41;;;;;;;;;;;;;;;-1.59;96.77;102903.22;5050833;28;20347;-47
2023/01/29 01:57:14;;;;;;;;;;;;;;;-1.59;96.56;102904.09;5051095;28;19924;-50
2023/01/29 01:59:40;;;;;;;;;;;;;;;-1.58;96.74;102913.06;5051291;28;19916;-46
2023/01/29 02:10:19;;;;;;;;;;;;;;;-1.75;97.27;102910.41;5050940;28;19924;-44
2023/01/29 02:12:45;;;;;;;;;;;;;;;-1.73;97.23;102915.66;5049461;28;20360;-46
2023/01/29 02:15:10;;;;;;;;;;;;;;;-1.76;97.26;102914.13;5032318;28;19924;-48
2023/01/29 02:17:35;;;;;;;;;;;;;;;-1.75;97.16;102910.41;5047717;28;19980;-48
2023/01/29 02:20:12;;;;;;;;;;;;;;;-1.74;97.46;102917.53;5050921;28;19909;-46
2023/01/29 02:22:54;;;;;;;;;;;;;;;-1.74;97.43;102917.53;5050912;28;20593;-46
2023/01/29 02:25:45;;;;;;;;;;;;;;;-1.73;97.43;102924.66;5050942;28;19916;-48
2023/01/29 02:28:23;;;;;;;;;;;;;;;-1.68;97.26;102921.41;5048685;28;19924;-47
2023/01/29 02:31:08;;;;;;;;;;;;;;;-1.70;97.46;102928.88;5049435;28;20023;-49
2023/01/29 02:33:33;;;;;;;;;;;;;;;-1.69;97.58;102927.88;5050820;28;19916;-48
2023/01/29 02:36:08;;;;;;;;;;;;;;;-1.68;97.49;102935.00;5050939;28;19916;-46
2023/01/29 02:38:42;;;;;;;;;;;;;;;-1.64;97.58;102922.75;5050879;28;20345;-47
2023/01/29 02:41:13;;;;;;;;;;;;;;;-1.63;97.87;102919.03;5050783;28;19924;-46
2023/01/29 02:43:46;;;;;;;;;;;;;;;-1.61;97.80;102910.72;5053136;28;19959;-48
2023/01/29 02:46:38;;;;;;;;;;;;;;;-1.63;98.35;102908.16;5054486;28;20229;-47
2023/01/29 02:49:13;;;;;;;;;;;;;;;-1.66;98.73;102918.53;5049821;28;19999;-48
2023/01/29 02:51:41;;;;;;;;;;;;;;;-1.68;98.82;102909.69;5054235;28;20372;-43
2023/01/29 02:54:24;;;;;;;;;;;;;;;-1.61;98.31;102924.28;5053980;28;20003;-45
2023/01/29 02:56:52;;;;;;;;;;;;;;;-1.57;98.03;102914.78;5054252;28;19917;-47
2023/01/29 02:59:24;;;;;;;;;;;;;;;-1.54;98.10;102903.56;5054186;28;19920;-45
2023/01/29 03:01:54;;;;;;;;;;;;;;;-1.51;97.78;102905.91;5054137;28;19914;-46
2023/01/29 03:04:30;;;;;;;;;;;;;;;-1.53;98.29;102907.97;5054195;28;19948;-45
2023/01/29 03:07:02;;;;;;;;;;;;;;;-1.51;97.93;102907.81;5052763;28;19923;-47
2023/01/29 03:09:30;;;;;;;;;;;;;;;-1.53;97.99;102907.97;5052570;28;20456;-45
2023/01/29 03:11:58;;;;;;;;;;;;;;;-1.52;97.97;102906.97;5054094;28;19917;-48
2023/01/29 03:15:10;;;;;;;;;;;;;;;-1.53;98.56;102901.69;5053854;28;19923;-47
2023/01/29 03:17:15;;;;;;;;;;;;;;;-1.51;98.30;102914.06;5053951;28;19921;-47
2023/01/29 03:19:42;;;;;;;;;;;;;;;-1.49;98.10;102903.88;5053927;28;19939;-47
2023/01/29 03:22:10;;;;;;;;;;;;;;;-1.36;97.71;102906.03;5053887;28;19958;-46
2023/01/29 03:33:03;;;;;;;;;;;;;;;-1.48;97.98;102900.16;5053717;28;20012;-47
2023/01/29 03:35:36;;;;;;;;;;;;;;;-1.49;98.79;102905.75;5053668;28;19920;-45
2023/01/29 03:38:06;;;;;;;;;;;;;;;-1.53;98.81;102905.28;5045886;28;19920;-45
2023/01/29 03:40:51;;;;;;;;;;;;;;;-1.53;98.88;102901.69;5051943;28;20427;-47
2023/01/29 03:43:19;;;;;;;;;;;;;;;-1.53;98.78;102894.41;5052990;28;19916;-44
2023/01/29 03:45:49;;;;;;;;;;;;;;;-1.47;98.38;102892.88;5053401;28;19966;-47
2023/01/29 03:48:17;;;;;;;;;;;;;;;-1.43;98.16;102886.06;5053347;28;19928;-50
2023/01/29 03:50:42;;;;;;;;;;;;;;;-1.41;98.26;102884.00;5052962;28;19967;-47
2023/01/29 03:53:08;;;;;;;;;;;;;;;-1.44;98.62;102874.34;5052977;28;20340;-48
2023/01/29 03:55:46;;;;;;;;;;;;;;;-1.43;98.91;102876.06;5051977;28;19917;-45
2023/01/29 03:58:11;;;;;;;;;;;;;;;-1.42;98.76;102882.31;5053040;28;19996;-48
2023/01/29 04:00:43;;;;;;;;;;;;;;;-1.45;99.75;102879.94;5052689;28;20031;-46
2023/01/29 04:03:15;;;;;;;;;;;;;;;-1.44;99.08;102874.34;5052725;28;19939;-48
2023/01/29 04:05:48;;;;;;;;;;;;;;;-1.39;98.81;102868.41;5052583;28;19913;-48
2023/01/29 04:08:21;;;;;;;;;;;;;;;-1.46;100.00;102859.25;5051876;28;19916;-45
2023/01/29 04:10:47;;;;;;;;;;;;;;;-1.46;99.88;102856.53;5052596;28;19917;-45
2023/01/29 04:13:13;;;;;;;;;;;;;;;-1.46;99.79;102851.09;5052377;28;20047;-44
2023/01/29 04:15:42;;;;;;;;;;;;;;;-1.45;99.32;102864.50;5052196;28;19928;-44
2023/01/29 04:18:08;;;;;;;;;;;;;;;-1.39;99.01;102867.53;5051991;28;19999;-49
2023/01/29 04:20:34;;;;;;;;;;;;;;;-1.37;99.04;102863.63;5051441;28;19924;-43
2023/01/29 04:22:59;;;;;;;;;;;;;;;-1.38;99.30;102856.53;5051370;28;19932;-45
2023/01/29 04:25:28;;;;;;;;;;;;;;;-1.38;100.00;102864.66;5050963;28;20368;-47
2023/01/29 04:28:08;;;;;;;;;;;;;;;-1.42;100.00;102860.59;5052257;28;19912;-45
2023/01/29 04:30:53;;;;;;;;;;;;;;;-1.41;100.00;102860.41;5051797;28;20295;-47
2023/01/29 04:33:28;;;;;;;;;;;;;;;-1.37;100.00;102850.03;5052094;28;19986;-49
2023/01/29 04:35:53;;;;;;;;;;;;;;;-1.32;99.77;102854.97;5052269;28;20391;-47
2023/01/29 04:38:18;;;;;;;;;;;;;;;-1.23;98.88;102843.03;5048033;28;19920;-48
2023/01/29 04:40:46;;;;;;;;;;;;;;;-1.33;100.00;102840.53;5048524;28;19916;-47
2023/01/29 04:43:11;;;;;;;;;;;;;;;-1.29;99.66;102827.44;5052087;28;19924;-48
2023/01/29 04:45:43;;;;;;;;;;;;;;;-1.34;100.00;102830.69;5051716;28;19913;-44
2023/01/29 04:48:19;;;;;;;;;;;;;;;-1.31;99.82;102821.34;5051966;28;19913;-47
2023/01/29 04:50:56;;;;;;;;;;;;;;;-1.29;99.50;102812.00;5050445;28;19912;-45
2023/01/29 04:53:22;;;;;;;;;;;;;;;-1.29;100.00;102803.00;5051631;28;19917;-46
2023/01/29 04:55:55;;;;;;;;;;;;;;;-1.31;100.00;102802.31;5051573;28;20399;-48
2023/01/29 04:58:33;;;;;;;;;;;;;;;-1.26;99.94;102799.94;5052007;28;19921;-46
2023/01/29 05:01:01;;;;;;;;;;;;;;;-1.26;99.41;102802.66;5051477;28;19964;-45
2023/01/29 05:03:27;;;;;;;;;;;;;;;-1.15;99.51;102804.97;5051765;28;19920;-46
2023/01/29 05:05:54;;;;;;;;;;;;;;;-1.14;99.96;102798.50;5051589;28;19916;-46
2023/01/29 05:08:21;;;;;;;;;;;;;;;-1.08;99.10;102798.81;5051328;28;19912;-45
2023/01/29 05:10:48;;;;;;;;;;;;;;;-1.07;99.05;102805.94;5051229;28;19920;-47
2023/01/29 05:13:13;;;;;;;;;;;;;;;-1.07;99.59;102806.75;5051921;28;19917;-46
2023/01/29 05:15:43;;;;;;;;;;;;;;;-0.97;99.10;102811.97;5051695;28;19928;-47
2023/01/29 05:18:09;;;;;;;;;;;;;;;-1.00;98.98;102809.63;5051629;28;19955;-45
2023/01/29 05:20:36;;;;;;;;;;;;;;;-0.96;99.62;102797.38;5051623;28;19963;-44
2023/01/29 05:23:01;;;;;;;;;;;;;;;-1.00;99.85;102790.59;5051425;28;19992;-46
2023/01/29 05:25:29;;;;;;;;;;;;;;;-1.01;99.50;102789.75;5051490;28;19947;-49
2023/01/29 05:28:10;;;;;;;;;;;;;;;-0.94;99.76;102784.44;5050181;28;19917;-48
2023/01/29 05:30:36;;;;;;;;;;;;;;;-0.93;99.51;102791.56;5051583;28;19920;-49
2023/01/29 05:33:02;;;;;;;;;;;;;;;-0.93;99.51;102774.41;5051351;28;19952;-46
2023/01/29 05:35:28;;;;;;;;;;;;;;;-0.88;99.62;102775.56;5051152;28;19967;-47
2023/01/29 05:37:56;;;;;;;;;;;;;;;-0.91;99.53;102784.06;5051189;28;19948;-47
2023/01/29 05:40:22;;;;;;;;;;;;;;;-0.86;98.99;102778.09;5044716;28;19967;-46
2023/01/29 05:42:47;;;;;;;;;;;;;;;-0.87;99.96;102779.13;5051367;28;19912;-49
2023/01/29 05:45:12;;;;;;;;;;;;;;;-0.88;100.00;102783.72;5049650;28;20443;-46
2023/01/29 05:47:38;;;;;;;;;;;;;;;-0.90;100.00;102788.50;5051102;28;19917;-48
2023/01/29 05:50:03;;;;;;;;;;;;;;;-0.87;99.92;102788.13;5051539;28;19970;-49
2023/01/29 05:52:28;;;;;;;;;;;;;;;-0.93;100.00;102783.41;5051510;28;19923;-45
2023/01/29 05:54:53;;;;;;;;;;;;;;;-0.90;100.00;102793.91;5049924;28;20022;-45
2023/01/29 05:57:19;;;;;;;;;;;;;;;-0.86;99.65;102803.41;5051353;28;20019;-47
2023/01/29 05:59:44;;;;;;;;;;;;;;;-0.77;100.00;102801.47;5049373;28;19916;-44
2023/01/29 06:02:09;;;;;;;;;;;;;;;-0.81;100.00;102797.44;5049715;28;19932;-46
2023/01/29 06:04:34;;;;;;;;;;;;;;;-0.84;100.00;102805.94;5049935;28;20005;-45
2023/01/29 06:07:02;;;;;;;;;;;;;;;-0.84;100.00;102806.78;5050820;28;19917;-48
2023/01/29 06:09:27;;;;;;;;;;;;;;;-0.80;100.00;102809.97;5050772;28;19927;-45
2023/01/29 06:11:52;;;;;;;;;;;;;;;-0.79;100.00;102808.94;5050696;28;19912;-45
2023/01/29 06:14:18;;;;;;;;;;;;;;;-0.76;100.00;102818.63;5050342;28;19923;-45
2023/01/29 06:16:43;;;;;;;;;;;;;;;-0.76;100.00;102824.91;5050827;28;19919;-46
2023/01/29 06:19:08;;;;;;;;;;;;;;;-0.73;100.00;102829.13;5053803;28;19920;-47
2023/01/29 06:21:33;;;;;;;;;;;;;;;-0.72;100.00;102823.53;5054198;28;20289;-47
2023/01/29 06:23:58;;;;;;;;;;;;;;;-0.71;100.00;102827.06;5053811;28;20380;-45
2023/01/29 06:26:24;;;;;;;;;;;;;;;-0.71;100.00;102818.91;5053442;28;20415;-46
2023/01/29 06:28:49;;;;;;;;;;;;;;;-0.77;100.00;102804.19;5053382;28;19963;-45
2023/01/29 06:31:15;;;;;;;;;;;;;;;-0.77;100.00;102787.88;5053368;28;19952;-44
2023/01/29 06:33:40;;;;;;;;;;;;;;;-0.79;100.00;102776.34;5048201;28;19913;-46
2023/01/29 06:36:05;;;;;;;;;;;;;;;-0.79;100.00;102768.19;5052670;28;20564;-49
2023/01/29 06:38:31;;;;;;;;;;;;;;;-0.82;100.00;102769.41;5054222;28;19923;-46
2023/01/29 06:40:57;;;;;;;;;;;;;;;-0.82;100.00;102768.56;5054443;28;19921;-46
2023/01/29 06:43:22;;;;;;;;;;;;;;;-0.75;100.00;102785.81;5054267;28;19913;-46
2023/01/29 06:45:52;;;;;;;;;;;;;;;-0.82;100.00;102780.28;5054028;28;20363;-47
2023/01/29 06:48:17;;;;;;;;;;;;;;;-0.82;100.00;102782.97;5054287;28;20034;-47
2023/01/29 06:50:43;;;;;;;;;;;;;;;-0.81;100.00;102779.25;5054202;28;20003;-47
2023/01/29 06:53:08;;;;;;;;;;;;;;;-0.81;100.00;102770.25;5054417;28;19919;-49
2023/01/29 06:55:34;;;;;;;;;;;;;;;-0.80;100.00;102783.66;5054319;28;19920;-48
2023/01/29 06:58:03;;;;;;;;;;;;;;;-0.79;100.00;102777.19;5054242;28;19912;-46
2023/01/29 07:00:28;;;;;;;;;;;;;;;-0.79;100.00;102771.75;5053986;28;19916;-50
2023/01/29 07:02:53;;;;;;;;;;;;;;;-0.76;100.00;102775.97;5053880;28;20019;-49
2023/01/29 07:05:18;;;;;;;;;;;;;;;-0.74;100.00;102773.94;5052785;28;19919;-48
2023/01/29 07:07:44;;;;;;;;;;;;;;;-0.73;100.00;102778.34;5053965;28;19913;-48
2023/01/29 07:10:09;;;;;;;;;;;;;;;-0.72;100.00;102768.31;5054172;28;20284;-52
2023/01/29 07:12:34;;;;;;;;;;;;;;;-0.70;100.00;102783.41;5053890;28;20364;-47
2023/01/29 07:14:59;;;;;;;;;;;;;;;-0.68;100.00;102780.50;5053516;28;19916;-49
2023/01/29 07:17:25;;;;;;;;;;;;;;;-0.70;100.00;102780.69;5053773;28;20399;-50
2023/01/29 07:19:50;;;;;;;;;;;;;;;-0.67;100.00;102784.94;5053902;28;19954;-48
2023/01/29 07:22:15;;;;;;;;;;;;;;;-0.64;100.00;102782.69;5052598;28;19913;-49
2023/01/29 07:24:41;;;;;;;;;;;;;;;-0.63;100.00;102778.94;5053828;28;19936;-46
2023/01/29 07:27:06;;;;;;;;;;;;;;;-0.59;100.00;102787.56;5053361;28;19931;-45
2023/01/29 07:29:32;;;;;;;;;;;;;;;-0.57;100.00;102787.38;5053462;28;19913;-47
2023/01/29 07:31:57;;;;;;;;;;;;;;;-0.54;100.00;102774.25;5043883;28;20343;-48
2023/01/29 07:34:22;;;;;;;;;;;;;;;-0.53;100.00;102770.50;5053753;28;19917;-46
2023/01/29 07:36:47;;;;;;;;;;;;;;;-0.53;100.00;102773.22;5053516;28;20360;-45
2023/01/29 07:39:12;;;;;;;;;;;;;;;-0.45;100.00;102772.31;5053463;28;19916;-46
2023/01/29 07:41:38;;;;;;;;;;;;;;;-0.50;100.00;102772.00;5054197;28;19939;-46
2023/01/29 07:44:03;;;;;;;;;;;;;;;-0.49;100.00;102774.56;5053320;28;19923;-44
2023/01/29 07:46:28;;;;;;;;;;;;;;;-0.47;100.00;102771.66;5053422;28;19917;-48
2023/01/29 07:48:53;;;;;;;;;;;;;;;-0.48;100.00;102780.84;5053306;28;19916;-46
2023/01/29 07:51:20;;;;;;;;;;;;;;;-0.49;100.00;102795.47;5053015;28;20027;-50
2023/01/29 07:53:46;;;;;;;;;;;;;;;-0.44;100.00;102789.47;5053353;28;19913;-46
2023/01/29 07:56:11;;;;;;;;;;;;;;;-0.43;100.00;102774.84;5051769;28;20011;-50
2023/01/29 07:58:36;;;;;;;;;;;;;;;-0.40;100.00;102769.03;5053072;28;19996;-46
2023/01/29 08:01:06;;;;;;;;;;;;;;;-0.41;100.00;102773.63;5052590;28;20007;-48
2023/01/29 08:03:31;;;;;;;;;;;;;;;-0.35;100.00;102761.16;5053275;28;19964;-46
2023/01/29 08:05:56;;;;;;;;;;;;;;;-0.28;100.00;102758.53;5051696;28;19959;-48
2023/01/29 08:08:22;;;;;;;;;;;;;;;-0.24;100.00;102763.44;5052993;28;19917;-45
2023/01/29 08:10:47;;;;;;;;;;;;;;;-0.26;100.00;102761.94;5052782;28;19983;-47
2023/01/29 08:13:12;;;;;;;;;;;;;;;-0.22;100.00;102764.09;5052907;28;19919;-47
2023/01/29 08:15:37;;;;;;;;;;;;;;;-0.24;100.00;102766.16;5052525;28;19917;-50
2023/01/29 08:18:03;;;;;;;;;;;;;;;-0.21;100.00;102760.34;5052827;28;20283;-46
2023/01/29 08:20:28;;;;;;;;;;;;;;;-0.19;100.00;102757.44;5052529;28;19958;-48
2023/01/29 08:23:00;;;;;;;;;;;;;;;-0.17;100.00;102755.38;5052465;28;19913;-50
2023/01/29 08:25:26;;;;;;;;;;;;;;;-0.20;100.00;102753.00;5052589;28;19920;-51
2023/01/29 08:27:51;;;;;;;;;;;;;;;-0.19;100.00;102758.25;5052657;28;20380;-46
2023/01/29 08:30:16;;;;;;;;;;;;;;;-0.16;100.00;102740.75;5052309;28;19916;-45
2023/01/29 08:32:41;;;;;;;;;;;;;;;-0.17;100.00;102737.16;5052658;28;19913;-50
2023/01/29 08:35:07;;;;;;;;;;;;;;;-0.17;100.00;102730.88;5052400;28;19917;-48
2023/01/29 08:37:32;;;;;;;;;;;;;;;-0.13;99.71;102732.19;5045087;28;19912;-50
2023/01/29 08:39:57;;;;;;;;;;;;;;;-0.16;100.00;102732.59;5050707;28;19913;-49
2023/01/29 08:42:22;;;;;;;;;;;;;;;-0.17;99.89;102728.16;5050770;28;19913;-49
2023/01/29 08:44:48;;;;;;;;;;;;;;;-0.11;99.77;102711.09;5052347;28;20356;-47
2023/01/29 08:47:13;;;;;;;;;;;;;;;-0.10;99.70;102711.94;5052202;28;19920;-47
2023/01/29 08:49:38;;;;;;;;;;;;;;;-0.15;99.96;102720.66;5052270;28;19951;-47
2023/01/29 08:52:03;;;;;;;;;;;;;;;-0.11;100.00;102723.84;5052188;28;19913;-46
2023/01/29 08:54:28;;;;;;;;;;;;;;;-0.10;100.00;102720.94;5050954;28;20551;-46
2023/01/29 08:56:54;;;;;;;;;;;;;;;-0.07;100.00;102727.88;5052055;28;20379;-47
2023/01/29 08:59:21;;;;;;;;;;;;;;;-0.06;100.00;102724.97;5050692;28;19921;-49
2023/01/29 09:01:46;;;;;;;;;;;;;;;0.01;100.00;102740.53;5051932;28;19913;-49
2023/01/29 09:04:12;;;;;;;;;;;;;;;0.03;100.00;102728.44;5052068;28;19959;-51
2023/01/29 09:06:37;;;;;;;;;;;;;;;0.04;99.63;102721.97;5050375;28;19912;-47
2023/01/29 09:09:02;;;;;;;;;;;;;;;0.09;99.70;102722.25;5037060;28;20312;-48
2023/01/29 09:11:27;;;;;;;;;;;;;;;0.10;100.00;102721.19;5029934;28;19924;-47
2023/01/29 09:13:52;;;;;;;;;;;;;;;0.12;99.73;102718.31;5029410;28;19939;-47
2023/01/29 09:16:18;;;;;;;;;;;;;;;0.16;99.43;102716.88;5044052;28;20065;-48
2023/01/29 09:18:43;;;;;;;;;;;;;;;0.19;99.21;102708.34;5057704;28;19917;-49
2023/01/29 09:21:08;;;;;;;;;;;;;;;0.21;99.26;102714.44;5049168;28;19936;-49
2023/01/29 09:23:33;;;;;;;;;;;;;;;0.27;99.46;102704.66;5049338;28;19991;-45
2023/01/29 09:25:59;;;;;;;;;;;;;;;0.33;98.79;102705.78;5049840;28;19924;-47
2023/01/29 09:28:24;;;;;;;;;;;;;;;0.42;98.06;102713.63;5049585;28;19923;-47
2023/01/29 09:30:50;;;;;;;;;;;;;;;0.42;98.61;102702.75;5049230;28;20394;-46
2023/01/29 09:33:15;;;;;;;;;;;;;;;0.46;98.18;102701.34;5042019;28;19917;-50
2023/01/29 09:35:41;;;;;;;;;;;;;;;0.57;97.66;102713.59;5049565;28;20344;-50
2023/01/29 09:38:06;;;;;;;;;;;;;;;0.59;96.83;102713.38;5049476;28;20382;-47
2023/01/29 09:40:50;;;;;;;;;;;;;;;0.61;97.05;102714.03;5049295;28;20011;-45
2023/01/29 09:43:21;;;;;;;;;;;;;;;0.58;96.42;102712.56;5049491;28;20037;-47
2023/01/29 09:45:59;;;;;;;;;;;;;;;0.67;96.72;102715.16;5049334;28;20341;-49
2023/01/29 09:48:26;;;;;;;;;;;;;;;0.72;95.89;102710.81;5048517;28;20333;-49
2023/01/29 09:50:53;;;;;;;;;;;;;;;0.75;95.96;102704.13;5048428;28;19917;-46
2023/01/29 09:53:23;;;;;;;;;;;;;;;0.76;96.52;102705.81;5051498;28;19920;-48
2023/01/29 09:55:56;;;;;;;;;;;;;;;0.87;95.31;102705.31;5053521;28;19968;-49
2023/01/29 09:58:27;;;;;;;;;;;;;;;0.93;95.67;102703.69;5053479;28;19981;-48
2023/01/29 10:00:52;;;;;;;;;;;;;;;0.96;94.86;102707.91;5033147;28;20352;-45
2023/01/29 10:03:36;;;;;;;;;;;;;;;1.01;94.73;102699.97;5033429;28;19962;-46
2023/01/29 10:06:18;;;;;;;;;;;;;;;1.13;93.55;102714.75;5033353;28;19917;-48
2023/01/29 10:08:43;;;;;;;;;;;;;;;1.13;93.41;102708.47;5033026;28;19948;-49
2023/01/29 10:11:18;;;;;;;;;;;;;;;1.08;93.33;102701.72;5034874;28;19966;-51
2023/01/29 10:13:47;;;;;;;;;;;;;;;1.13;94.17;102708.47;5051408;28;20008;-49
2023/01/29 10:16:39;;;;;;;;;;;;;;;1.19;92.60;102703.06;5053667;28;20251;-49
2023/01/29 10:19:20;;;;;;;;;;;;;;;1.14;92.77;102700.09;5052991;28;19989;-48
2023/01/29 10:21:47;;;;;;;;;;;;;;;1.17;91.76;102701.56;5052886;28;20340;-49
2023/01/29 10:24:45;;;;;;;;;;;;;;;1.03;91.66;102703.34;5052868;28;20035;-47
2023/01/29 10:27:12;;;;;;;;;;;;;;;1.07;92.40;102710.94;5037450;28;19924;-50
2023/01/29 10:29:40;;;;;;;;;;;;;;;1.20;92.37;102709.38;5047051;28;19920;-47
2023/01/29 10:32:05;;;;;;;;;;;;;;;1.13;91.68;102703.03;5052413;28;19916;-44
2023/01/29 10:34:33;;;;;;;;;;;;;;;1.15;92.45;102707.22;5052023;28;19916;-47
2023/01/29 10:36:58;;;;;;;;;;;;;;;1.17;92.97;102704.28;5052124;28;19917;-48
2023/01/29 10:39:25;;;;;;;;;;;;;;;1.21;92.12;102703.69;5051135;28;19923;-48
2023/01/29 10:41:58;;;;;;;;;;;;;;;1.29;91.73;102701.88;5051258;28;19913;-45
2023/01/29 10:44:46;;;;;;;;;;;;;;;1.30;92.39;102711.72;5049623;28;20369;-46
2023/01/29 10:47:24;;;;;;;;;;;;;;;1.48;90.94;102695.72;5048456;28;19967;-45
2023/01/29 10:50:14;;;;;;;;;;;;;;;1.36;90.77;102695.44;5051429;28;19920;-47
2023/01/29 10:52:45;;;;;;;;;;;;;;;1.44;91.37;102691.72;5051818;28;19995;-48
2023/01/29 10:55:19;;;;;;;;;;;;;;;1.47;90.17;102687.75;5050894;28;19913;-46
2023/01/29 10:57:44;;;;;;;;;;;;;;;1.42;91.32;102677.44;5051009;28;20007;-47
2023/01/29 11:00:23;;;;;;;;;;;;;;;1.36;90.46;102684.53;5051916;28;20016;-48
2023/01/29 11:02:50;;;;;;;;;;;;;;;1.42;90.94;102682.06;5051352;28;19916;-49
2023/01/29 11:05:18;;;;;;;;;;;;;;;1.38;90.21;102663.34;5051431;28;20352;-50
2023/01/29 11:07:43;;;;;;;;;;;;;;;1.45;90.34;102655.22;5051763;28;20324;-47
2023/01/29 11:10:16;;;;;;;;;;;;;;;1.56;89.97;102651.06;5051511;28;19928;-46
2023/01/29 11:12:42;;;;;;;;;;;;;;;1.47;90.03;102646.81;5051666;28;19922;-51
2023/01/29 11:15:10;;;;;;;;;;;;;;;1.53;90.11;102640.56;5065854;28;19980;-47
2023/01/29 11:17:36;;;;;;;;;;;;;;;1.52;90.29;102636.16;5051361;28;19952;-51
2023/01/29 11:20:01;;;;;;;;;;;;;;;1.64;89.72;102625.53;5051409;28;19919;-45
2023/01/29 11:22:27;;;;;;;;;;;;;;;1.68;89.64;102627.66;5050056;28;20198;-47
2023/01/29 11:25:09;;;;;;;;;;;;;;;1.81;89.60;102613.22;5044331;28;19921;-46
2023/01/29 11:27:39;;;;;;;;;;;;;;;1.88;89.39;102615.97;5051589;28;19917;-46
2023/01/29 11:30:05;;;;;;;;;;;;;;;1.95;89.44;102607.78;5051510;28;19978;-47
2023/01/29 11:32:34;;;;;;;;;;;;;;;2.02;88.56;102601.31;5051220;28;19948;-49
2023/01/29 11:35:04;;;;;;;;;;;;;;;1.93;88.64;102599.00;5051380;28;19920;-50
2023/01/29 11:37:37;;;;;;;;;;;;;;;2.05;88.51;102593.78;5050593;28;19916;-47
2023/01/29 11:40:17;;;;;;;;;;;;;;;2.02;87.89;102586.84;5051159;28;19921;-47
2023/01/29 11:42:43;;;;;;;;;;;;;;;2.12;88.37;102587.28;5041320;28;19928;-46
2023/01/29 11:45:24;;;;;;;;;;;;;;;1.99;88.20;102589.97;5051095;28;19928;-47
2023/01/29 11:47:52;;;;;;;;;;;;;;;1.99;88.66;102576.31;5051023;28;19916;-46
2023/01/29 11:50:22;;;;;;;;;;;;;;;2.01;87.79;102574.25;5050423;28;19926;-46
2023/01/29 11:52:47;;;;;;;;;;;;;;;1.98;88.60;102564.56;5050386;28;19933;-49
2023/01/29 11:55:21;;;;;;;;;;;;;;;2.09;87.38;102560.38;5050524;28;19916;-48
2023/01/29 11:57:49;;;;;;;;;;;;;;;2.08;86.74;102566.91;5050695;28;19920;-49
2023/01/29 12:00:22;;;;;;;;;;;;;;;2.23;86.61;102544.88;5050232;28;19913;-47
2023/01/29 12:02:52;;;;;;;;;;;;;;;2.23;86.87;102542.13;5050799;28;20011;-49
2023/01/29 12:05:19;;;;;;;;;;;;;;;2.26;86.03;102533.53;5050085;28;19939;-50
2023/01/29 12:07:46;;;;;;;;;;;;;;;2.31;86.49;102535.66;5049280;28;19935;-51
2023/01/29 12:10:30;;;;;;;;;;;;;;;2.29;85.31;102532.28;5050670;28;19920;-50
2023/01/29 12:13:06;;;;;;;;;;;;;;;2.43;85.09;102533.13;5048930;28;20019;-48
2023/01/29 12:15:31;;;;;;;;;;;;;;;2.28;85.35;102536.88;5049170;28;19920;-48
2023/01/29 12:18:02;;;;;;;;;;;;;;;2.39;84.91;102535.44;5049915;28;20033;-51
2023/01/29 12:20:32;;;;;;;;;;;;;;;2.40;85.00;102530.81;5043300;28;20018;-49
2023/01/29 12:23:10;;;;;;;;;;;;;;;2.33;85.07;102522.59;5049427;28;19956;-49
2023/01/29 12:25:40;;;;;;;;;;;;;;;2.32;85.88;102510.84;5049329;28;20398;-48
2023/01/29 12:28:05;;;;;;;;;;;;;;;2.27;84.92;102507.06;5050622;28;20038;-48
2023/01/29 12:30:36;;;;;;;;;;;;;;;2.30;85.58;102503.91;5050251;28;20426;-47
2023/01/29 12:33:05;;;;;;;;;;;;;;;2.25;86.15;102495.50;5050606;28;19916;-47
2023/01/29 12:35:59;;;;;;;;;;;;;;;2.25;86.97;102492.75;5050339;28;20368;-47
2023/01/29 12:38:25;;;;;;;;;;;;;;;2.30;86.20;102490.25;5012217;28;19934;-50
2023/01/29 12:40:55;;;;;;;;;;;;;;;2.43;86.63;102484.78;5050487;28;20364;-51
2023/01/29 12:43:22;;;;;;;;;;;;;;;2.39;85.85;102482.69;5047578;28;19916;-48
2023/01/29 12:45:51;;;;;;;;;;;;;;;2.35;86.07;102476.81;5049608;28;20368;-47
2023/01/29 12:48:48;;;;;;;;;;;;;;;2.41;85.85;102475.13;5048851;28;19913;-47
2023/01/29 12:51:18;;;;;;;;;;;;;;;2.34;86.50;102469.66;5026026;28;19960;-50
2023/01/29 12:53:47;;;;;;;;;;;;;;;2.31;86.13;102465.47;5048832;28;19975;-47
2023/01/29 12:56:21;;;;;;;;;;;;;;;2.26;87.16;102465.25;5048221;28;20015;-45
2023/01/29 12:58:49;;;;;;;;;;;;;;;2.31;87.23;102467.38;5050352;28;19920;-49
2023/01/29 13:01:19;;;;;;;;;;;;;;;2.43;87.18;102459.38;5049933;28;19920;-49
2023/01/29 13:04:06;;;;;;;;;;;;;;;2.58;85.37;102449.03;5050270;28;19932;-47
2023/01/29 13:06:35;;;;;;;;;;;;;;;2.46;85.42;102462.50;5049631;28;20338;-46
2023/01/29 13:09:03;;;;;;;;;;;;;;;2.38;86.31;102453.69;5049135;28;19916;-47